Time;durP1;ratioP1;P1;durP2;ratioP2;P2;SDS_P1;SDS_P2;PMS_P1;PMS_P2;Temp;Humidity;BMP_temperature;BMP_pressure;BME280_temperature;BME280_humidity;BME280_pressure;Samples;Min_cycle;Max_cycle;Signal;HPM_P1;HPM_P2
2022/09/16 00:01:32;;;;;;;6.97;1.48;;;15.40;99.90;;;;;;4934823;29;20032;-96
2022/09/16 00:04:19;;;;;;;4.55;0.98;;;15.30;99.90;;;;;;4935294;29;20044;-95
2022/09/16 00:07:08;;;;;;;;;;;;;;;;;;;;;
2022/09/16 00:09:53;;;;;;;7.43;1.13;;;15.30;99.90;;;;;;4940499;29;20516;-95
2022/09/16 00:15:09;;;;;;;7.22;1.23;;;15.30;99.90;;;;;;5364520;23;20064;-93
2022/09/16 00:29:35;;;;;;;4.95;1.00;;;15.30;99.90;;;;;;4911508;29;20036;-96
2022/09/16 00:32:02;;;;;;;3.65;1.02;;;15.30;99.90;;;;;;4889131;29;20037;-96
2022/09/16 00:34:30;;;;;;;5.15;1.40;;;15.30;99.90;;;;;;5021627;23;20041;-95
2022/09/16 00:36:56;;;;;;;4.68;1.20;;;15.30;99.90;;;;;;4922907;29;20008;-95
2022/09/16 00:39:22;;;;;;;5.35;1.20;;;15.30;99.90;;;;;;4922273;29;20119;-95
2022/09/16 00:41:48;;;;;;;4.90;0.90;;;15.30;99.90;;;;;;4920722;29;20099;-95
2022/09/16 00:44:53;;;;;;;1.92;1.00;;;15.30;99.90;;;;;;4921354;29;20047;-94
2022/09/16 00:47:49;;;;;;;3.97;0.98;;;15.30;99.90;;;;;;4911462;29;20055;-94
2022/09/16 00:50:37;;;;;;;5.85;1.17;;;15.30;99.90;;;;;;4916298;29;20036;-93
2022/09/16 00:53:16;;;;;;;6.30;1.20;;;15.30;99.90;;;;;;4924328;29;20039;-96
2022/09/16 00:55:43;;;;;;;5.43;1.33;;;15.40;99.90;;;;;;4905488;29;20032;-96
2022/09/16 00:58:27;;;;;;;5.45;1.23;;;15.30;99.90;;;;;;4910477;29;20056;-96
2022/09/16 01:00:52;;;;;;;5.25;1.90;;;15.40;99.90;;;;;;4924892;29;20059;-96
2022/09/16 01:03:23;;;;;;;3.83;0.93;;;15.40;99.90;;;;;;4908023;29;20084;-96
2022/09/16 01:05:49;;;;;;;6.93;1.57;;;15.40;99.90;;;;;;4917188;29;20445;-96
2022/09/16 01:08:14;;;;;;;4.72;1.00;;;15.40;99.90;;;;;;4905243;29;20292;-96
2022/09/16 01:10:42;;;;;;;6.68;1.33;;;15.40;99.90;;;;;;4909659;29;20060;-96
2022/09/16 01:13:11;;;;;;;3.67;1.05;;;15.40;99.90;;;;;;4914189;29;20013;-96
2022/09/16 01:15:47;;;;;;;4.95;1.13;;;15.40;99.90;;;;;;4913021;29;20024;-96
2022/09/16 01:18:44;;;;;;;4.68;1.63;;;15.40;99.90;;;;;;4923600;29;20043;-96
2022/09/16 01:21:37;;;;;;;6.18;1.38;;;15.30;99.90;;;;;;4922128;29;20040;-96
2022/09/16 01:24:18;;;;;;;5.40;1.20;;;15.30;99.90;;;;;;4922606;29;20034;-95
2022/09/16 01:27:45;;;;;;;5.20;1.23;;;15.30;99.90;;;;;;4927975;29;20032;-96
2022/09/16 01:30:17;;;;;;;7.07;1.50;;;15.20;99.90;;;;;;4903185;29;20028;-96
2022/09/16 01:33:04;;;;;;;5.75;1.90;;;15.20;99.90;;;;;;4926861;29;20032;-96
2022/09/16 01:35:38;;;;;;;4.22;1.13;;;15.20;99.90;;;;;;4935836;29;20026;-95
2022/09/16 01:38:27;;;;;;;7.57;1.33;;;15.20;99.90;;;;;;4929978;29;20480;-95
2022/09/16 01:41:05;;;;;;;4.75;1.48;;;15.20;99.90;;;;;;4933102;29;20027;-96
2022/09/16 01:43:56;;;;;;;5.32;1.60;;;15.10;99.90;;;;;;4926389;29;20060;-96
2022/09/16 01:46:43;;;;;;;;;;;15.20;99.90;;;;;;4918383;29;20035;-96
2022/09/16 01:49:40;;;;;;;;;;;;;;;;;;;;;
2022/09/16 01:54:55;;;;;;;5.22;1.20;;;15.10;99.90;;;;;;5171680;23;20064;-92
2022/09/16 01:57:44;;;;;;;5.88;1.45;;;15.10;99.90;;;;;;5130831;23;20076;-95
2022/09/16 02:00:14;;;;;;;4.07;1.20;;;15.10;99.90;;;;;;4939101;29;20044;-95
2022/09/16 02:02:58;;;;;;;8.25;1.55;;;15.10;99.90;;;;;;4904724;29;20040;-96
2022/09/16 02:05:28;;;;;;;5.80;1.30;;;15.10;99.90;;;;;;4923994;29;20039;-96
2022/09/16 02:08:13;;;;;;;5.90;1.40;;;15.10;99.90;;;;;;4928664;29;20020;-96
2022/09/16 02:10:54;;;;;;;5.75;1.40;;;15.10;99.90;;;;;;5534810;23;20019;-95
2022/09/16 02:13:26;;;;;;;4.93;1.30;;;15.10;99.90;;;;;;5140659;23;20115;-95
2022/09/16 02:15:57;;;;;;;4.57;1.13;;;15.00;99.90;;;;;;4929140;29;20039;-96
2022/09/16 02:18:32;;;;;;;4.38;1.55;;;15.00;99.90;;;;;;4938324;29;20032;-96
2022/09/16 02:21:03;;;;;;;6.07;1.80;;;15.00;99.90;;;;;;4931445;29;20025;-96
2022/09/16 02:23:38;;;;;;;4.45;1.05;;;15.00;99.90;;;;;;5014470;23;20057;-94
2022/09/16 02:26:10;;;;;;;4.97;1.33;;;15.00;99.90;;;;;;4912115;29;20367;-96
2022/09/16 02:28:42;;;;;;;7.15;1.50;;;15.00;99.90;;;;;;4921740;29;20068;-96
2022/09/16 02:31:13;;;;;;;6.32;1.40;;;15.00;99.90;;;;;;4913243;29;20029;-96
2022/09/16 02:34:05;;;;;;;6.65;1.40;;;15.00;99.90;;;;;;4909698;29;20028;-96
2022/09/16 02:36:38;;;;;;;5.80;1.48;;;15.00;99.90;;;;;;4914145;29;20041;-96
2022/09/16 02:39:08;;;;;;;6.13;1.65;;;15.00;99.90;;;;;;4911572;29;20052;-96
2022/09/16 02:41:40;;;;;;;5.85;1.38;;;15.00;99.90;;;;;;4914710;29;20032;-95
2022/09/16 02:44:10;;;;;;;4.90;1.20;;;15.00;99.90;;;;;;4911047;29;20079;-96
2022/09/16 02:47:00;;;;;;;7.85;1.65;;;15.00;99.90;;;;;;4913868;29;20056;-96
2022/09/16 02:49:47;;;;;;;5.20;1.13;;;15.00;99.90;;;;;;4907133;29;20025;-96
2022/09/16 02:52:19;;;;;;;5.60;1.73;;;15.00;99.90;;;;;;4905332;29;20352;-96
2022/09/16 02:55:12;;;;;;;5.53;1.10;;;14.90;99.90;;;;;;4923656;29;20036;-96
2022/09/16 02:57:37;;;;;;;6.85;1.30;;;15.00;99.90;;;;;;4906624;29;20457;-96
2022/09/16 03:00:05;;;;;;;5.63;1.50;;;14.90;99.90;;;;;;4891613;29;20033;-95
2022/09/16 03:02:34;;;;;;;6.90;1.50;;;14.90;99.90;;;;;;4918964;29;20028;-96
2022/09/16 03:05:01;;;;;;;4.95;1.10;;;14.90;99.90;;;;;;4924166;29;20021;-95
2022/09/16 03:07:26;;;;;;;4.57;1.00;;;14.90;99.90;;;;;;4913298;29;20044;-96
2022/09/16 03:09:55;;;;;;;5.85;1.10;;;14.90;99.90;;;;;;4918473;29;20119;-96
2022/09/16 03:12:53;;;;;;;6.00;1.17;;;14.90;99.90;;;;;;4903296;29;20120;-96
2022/09/16 03:15:25;;;;;;;4.50;1.00;;;14.90;99.90;;;;;;4902926;29;20032;-96
2022/09/16 03:18:32;;;;;;;8.00;1.77;;;14.90;99.90;;;;;;4919824;29;20032;-95
2022/09/16 03:21:10;;;;;;;3.60;0.98;;;14.80;99.90;;;;;;4891155;29;20061;-95
2022/09/16 03:23:43;;;;;;;3.92;1.05;;;14.80;99.90;;;;;;4918719;29;20054;-95
2022/09/16 03:26:24;;;;;;;4.10;1.23;;;14.80;99.90;;;;;;4923462;29;20036;-96
2022/09/16 03:28:59;;;;;;;8.00;1.58;;;14.70;99.90;;;;;;4912120;29;20041;-94
2022/09/16 03:31:33;;;;;;;6.75;1.40;;;14.70;99.90;;;;;;4919190;29;20036;-96
2022/09/16 03:34:13;;;;;;;11.23;2.00;;;14.70;99.90;;;;;;4901932;29;20048;-95
2022/09/16 03:36:44;;;;;;;7.05;1.40;;;14.70;99.90;;;;;;4918482;29;20066;-95
2022/09/16 03:39:11;;;;;;;5.40;1.42;;;14.70;99.90;;;;;;4902830;29;20067;-96
2022/09/16 03:41:41;;;;;;;4.72;1.25;;;14.70;99.90;;;;;;4903980;29;20021;-95
2022/09/16 03:44:07;;;;;;;5.53;1.40;;;14.70;99.90;;;;;;4902286;29;20485;-94
2022/09/16 03:46:32;;;;;;;8.07;1.38;;;14.70;99.90;;;;;;4919284;29;20044;-95
2022/09/16 03:48:58;;;;;;;5.25;1.15;;;14.70;99.90;;;;;;4904451;29;20578;-95
2022/09/16 03:51:25;;;;;;;5.47;1.40;;;14.70;99.90;;;;;;4918544;29;20020;-95
2022/09/16 03:53:52;;;;;;;7.00;1.83;;;14.70;99.90;;;;;;4901819;29;20393;-94
2022/09/16 03:56:20;;;;;;;2.65;1.00;;;14.70;99.90;;;;;;4902098;29;20028;-94
2022/09/16 03:58:47;;;;;;;6.55;1.60;;;14.70;99.90;;;;;;4871857;29;20040;-94
2022/09/16 04:01:13;;;;;;;5.78;1.02;;;14.70;99.90;;;;;;4902569;29;20028;-96
2022/09/16 04:03:44;;;;;;;5.50;1.35;;;14.70;99.90;;;;;;4907700;29;20020;-96
2022/09/16 04:06:10;;;;;;;5.57;2.10;;;14.70;99.90;;;;;;4890533;29;20521;-96
2022/09/16 04:08:36;;;;;;;5.45;1.33;;;14.70;99.90;;;;;;4905937;29;20029;-96
2022/09/16 04:11:04;;;;;;;8.68;1.60;;;14.70;99.90;;;;;;4915025;29;20072;-96
2022/09/16 04:13:53;;;;;;;6.78;1.42;;;14.70;99.90;;;;;;4920753;29;20032;-96
2022/09/16 04:16:32;;;;;;;;;;;;;;;;;;;;;
2022/09/16 04:19:06;;;;;;;5.55;1.40;;;14.70;99.90;;;;;;4940781;29;20068;-96
2022/09/16 04:21:34;;;;;;;7.13;1.50;;;14.70;99.90;;;;;;4921679;29;20067;-96
2022/09/16 04:24:08;;;;;;;7.00;1.30;;;14.60;99.90;;;;;;5392783;23;20049;-93
2022/09/16 04:26:33;;;;;;;7.47;2.05;;;14.60;99.90;;;;;;4885068;29;20045;-96
2022/09/16 04:38:13;;;;;;;7.60;1.52;;;14.50;99.90;;;;;;4939673;29;20056;-96
2022/09/16 04:40:53;;;;;;;8.18;1.60;;;14.50;99.90;;;;;;4946886;29;20104;-95
2022/09/16 04:43:28;;;;;;;7.43;2.92;;;14.50;99.90;;;;;;4922418;29;20111;-96
2022/09/16 04:45:57;;;;;;;6.10;1.30;;;14.50;99.90;;;;;;4938419;29;20027;-94
2022/09/16 04:48:45;;;;;;;5.72;1.13;;;14.50;99.90;;;;;;4916235;29;20035;-95
2022/09/16 05:01:48;;;;;;;3.47;1.00;;;14.40;99.90;;;;;;5734227;23;20056;31
2022/09/16 05:04:14;;;;;;;4.10;1.25;;;14.50;99.90;;;;;;5308361;23;20445;-96
2022/09/16 05:06:40;;;;;;;4.75;1.27;;;14.40;99.90;;;;;;4869569;29;20062;-96
2022/09/16 05:09:08;;;;;;;2.90;0.80;;;14.40;99.90;;;;;;4881824;29;20033;-94
2022/09/16 05:11:39;;;;;;;6.00;1.88;;;14.40;99.90;;;;;;4882954;29;20025;-96
2022/09/16 05:14:07;;;;;;;5.43;1.50;;;14.40;99.90;;;;;;4883248;29;20072;-96
2022/09/16 05:16:33;;;;;;;9.30;1.50;;;14.40;99.90;;;;;;4881341;29;20127;-94
2022/09/16 05:19:03;;;;;;;5.18;1.08;;;14.40;99.90;;;;;;4897361;29;20029;-93
2022/09/16 05:21:30;;;;;;;4.17;1.03;;;14.40;99.90;;;;;;4897162;29;20029;-95
2022/09/16 05:24:16;;;;;;;6.18;1.05;;;14.40;99.90;;;;;;4897495;29;20029;-95
2022/09/16 05:32:41;;;;;;;5.35;1.48;;;14.40;99.90;;;;;;5752476;23;19927;-96
2022/09/16 05:35:09;;;;;;;3.50;1.20;;;14.30;99.90;;;;;;4912262;29;20036;-96
2022/09/16 05:37:34;;;;;;;4.43;1.20;;;14.30;99.90;;;;;;5133315;23;20071;-95
2022/09/16 05:40:00;;;;;;;4.53;1.20;;;14.30;99.90;;;;;;4928037;29;20084;-95
2022/09/16 05:42:26;;;;;;;2.70;1.25;;;14.30;99.90;;;;;;4895328;29;20088;-95
2022/09/16 05:44:52;;;;;;;4.32;1.67;;;14.30;99.90;;;;;;4903248;29;20076;-96
2022/09/16 05:47:17;;;;;;;3.90;1.10;;;14.30;99.90;;;;;;4904821;29;20064;-95
2022/09/16 05:49:43;;;;;;;5.00;1.08;;;14.40;99.90;;;;;;4923774;29;20096;-95
2022/09/16 05:52:09;;;;;;;5.00;1.05;;;14.30;99.90;;;;;;4934212;29;20096;-96
2022/09/16 05:54:35;;;;;;;2.42;0.82;;;14.30;99.90;;;;;;4920934;29;20029;-95
2022/09/16 05:57:01;;;;;;;3.85;1.33;;;14.30;99.90;;;;;;4906342;29;20057;-95
2022/09/16 05:59:29;;;;;;;2.50;0.95;;;14.30;99.90;;;;;;4904200;29;20051;-95
2022/09/16 06:01:55;;;;;;;4.13;0.98;;;14.30;99.90;;;;;;4901968;29;20032;-93
2022/09/16 06:04:21;;;;;;;3.92;1.10;;;14.20;99.90;;;;;;4919927;29;20106;-95
2022/09/16 06:06:46;;;;;;;5.75;1.20;;;14.30;99.90;;;;;;4901881;29;20537;-95
2022/09/16 06:09:23;;;;;;;4.20;1.10;;;14.20;99.90;;;;;;4888708;29;20122;-95
2022/09/16 06:11:54;;;;;;;3.08;0.98;;;14.20;99.90;;;;;;4922418;29;20039;-95
2022/09/16 06:14:21;;;;;;;4.63;0.98;;;14.20;99.90;;;;;;4888168;29;20115;-94
2022/09/16 06:16:47;;;;;;;3.97;1.23;;;14.20;99.90;;;;;;4885743;29;20088;-95
2022/09/16 06:19:15;;;;;;;1.27;0.70;;;14.20;99.90;;;;;;4902017;29;20028;-94
2022/09/16 06:21:42;;;;;;;5.95;1.02;;;14.10;99.90;;;;;;4899992;29;20433;-94
2022/09/16 06:24:09;;;;;;;4.90;1.42;;;14.10;99.90;;;;;;4902076;29;20025;-95
2022/09/16 06:26:39;;;;;;;5.85;1.00;;;14.10;99.90;;;;;;4901614;29;20044;-96
2022/09/16 06:29:05;;;;;;;4.53;1.10;;;14.10;99.90;;;;;;4904356;29;20385;-95
2022/09/16 06:31:36;;;;;;;4.40;0.80;;;14.10;99.90;;;;;;4901444;29;20128;-96
2022/09/16 06:34:03;;;;;;;3.30;1.23;;;14.10;99.90;;;;;;4902311;29;20093;-94
2022/09/16 06:36:32;;;;;;;4.63;1.27;;;14.10;99.90;;;;;;4885725;29;20100;-95
2022/09/16 06:38:58;;;;;;;3.33;0.93;;;14.10;99.90;;;;;;4900163;29;20363;-95
2022/09/16 06:41:29;;;;;;;3.42;0.90;;;14.10;99.90;;;;;;4884926;29;20035;-95
2022/09/16 06:43:55;;;;;;;3.30;1.08;;;14.20;99.90;;;;;;4885371;29;20393;-95
2022/09/16 06:46:23;;;;;;;4.22;1.08;;;14.20;99.90;;;;;;4902623;29;20083;-96
2022/09/16 06:48:53;;;;;;;4.68;0.90;;;14.20;99.90;;;;;;4899821;29;20031;-94
2022/09/16 06:51:21;;;;;;;3.20;0.85;;;14.20;99.90;;;;;;4903676;29;20032;-94
2022/09/16 06:53:48;;;;;;;3.60;1.10;;;14.20;99.90;;;;;;4916014;29;20028;-95
2022/09/16 06:56:19;;;;;;;2.72;1.00;;;14.20;99.90;;;;;;4918983;29;20120;-95
2022/09/16 06:58:47;;;;;;;3.65;0.98;;;14.20;99.90;;;;;;4923699;29;20036;-96
2022/09/16 07:01:27;;;;;;;4.82;0.90;;;14.30;99.90;;;;;;4925224;29;20051;-95
2022/09/16 07:03:54;;;;;;;3.28;0.80;;;14.30;99.90;;;;;;4904670;29;20474;-95
2022/09/16 07:06:21;;;;;;;4.88;0.90;;;14.30;99.90;;;;;;4892547;29;20044;-96
2022/09/16 07:09:10;;;;;;;4.90;1.10;;;14.30;99.90;;;;;;4916325;29;20064;-96
2022/09/16 07:11:49;;;;;;;6.90;1.05;;;14.40;99.90;;;;;;4924821;29;20036;-96
2022/09/16 07:14:15;;;;;;;5.65;1.08;;;14.40;99.90;;;;;;4940171;29;20088;-96
2022/09/16 07:16:48;;;;;;;2.95;0.98;;;14.40;99.90;;;;;;4919662;29;20033;-96
2022/09/16 07:19:22;;;;;;;3.33;0.90;;;14.40;99.90;;;;;;4922865;29;20023;-96
2022/09/16 07:22:11;;;;;;;4.60;1.10;;;14.50;99.90;;;;;;4917865;29;20037;-96
2022/09/16 07:24:53;;;;;;;;;;;;;;;;;;;;;
2022/09/16 07:27:21;;;;;;;3.92;0.90;;;14.50;99.90;;;;;;4920113;29;20067;-96
2022/09/16 07:29:50;;;;;;;2.72;0.98;;;14.50;99.90;;;;;;4901830;29;20033;-96
2022/09/16 07:32:43;;;;;;;;;;;;;;;;;;;;;
2022/09/16 07:35:22;;;;;;;3.67;1.02;;;14.60;99.90;;;;;;4921833;29;20152;-96
2022/09/16 07:37:48;;;;;;;6.82;0.82;;;14.60;99.90;;;;;;4919072;29;20112;-96
2022/09/16 07:40:26;;;;;;;2.45;0.73;;;14.70;99.90;;;;;;4922408;29;20060;-96
2022/09/16 07:43:27;;;;;;;3.83;0.77;;;14.70;99.90;;;;;;4919387;29;20036;-96
2022/09/16 07:45:59;;;;;;;4.10;1.38;;;14.80;99.90;;;;;;4918081;29;20109;-96
2022/09/16 07:48:38;;;;;;;4.00;0.60;;;14.80;99.90;;;;;;4902233;29;20059;-96
2022/09/16 07:51:29;;;;;;;3.25;0.57;;;14.80;99.90;;;;;;4939337;29;20028;-96
2022/09/16 07:54:01;;;;;;;6.15;0.85;;;14.80;99.90;;;;;;4876846;29;20056;-96
2022/09/16 07:56:33;;;;;;;5.80;1.27;;;14.90;99.90;;;;;;4926745;29;20016;-96
2022/09/16 07:59:00;;;;;;;2.00;0.98;;;14.90;99.90;;;;;;4939779;29;20029;-96
2022/09/16 08:01:28;;;;;;;3.78;0.90;;;15.00;99.90;;;;;;4939215;29;20032;-96
2022/09/16 08:03:54;;;;;;;5.43;1.02;;;15.00;99.90;;;;;;4938070;29;20032;-96
2022/09/16 08:06:27;;;;;;;3.67;0.93;;;15.10;99.90;;;;;;4934796;29;20048;-95
2022/09/16 08:08:58;;;;;;;5.38;1.02;;;15.10;99.90;;;;;;4905757;29;20036;-94
2022/09/16 08:11:25;;;;;;;;;;;15.20;99.90;;;;;;4899123;29;20035;-96
2022/09/16 08:13:57;;;;;;;6.40;1.40;;;15.20;99.90;;;;;;4923514;29;19914;-96
2022/09/16 08:16:23;;;;;;;4.25;0.90;;;15.30;99.90;;;;;;4909684;29;20028;-95
2022/09/16 08:18:52;;;;;;;3.80;0.90;;;15.40;99.90;;;;;;4924377;29;20111;-95
2022/09/16 08:21:22;;;;;;;7.75;1.10;;;15.40;99.90;;;;;;4909350;29;20465;-96
2022/09/16 08:23:48;;;;;;;4.05;1.00;;;15.40;99.90;;;;;;4923868;29;20039;-96
2022/09/16 08:26:16;;;;;;;3.85;0.75;;;15.50;99.90;;;;;;4927133;29;20016;-95
2022/09/16 08:28:45;;;;;;;3.42;0.77;;;15.60;99.90;;;;;;4925800;29;20044;-96
2022/09/16 08:31:13;;;;;;;3.83;0.90;;;15.60;99.90;;;;;;4927118;29;20025;-96
2022/09/16 08:33:42;;;;;;;4.88;1.00;;;15.70;99.90;;;;;;4908390;29;20024;-96
2022/09/16 08:36:40;;;;;;;3.72;0.90;;;15.80;99.90;;;;;;4918549;29;20016;-96
2022/09/16 08:39:10;;;;;;;3.47;0.73;;;15.90;99.90;;;;;;4896846;29;20068;-96
2022/09/16 08:41:59;;;;;;;5.07;1.15;;;15.90;99.90;;;;;;4922392;29;20013;-96
2022/09/16 08:44:37;;;;;;;4.53;0.80;;;16.00;99.90;;;;;;4915832;29;20039;-96
2022/09/16 08:47:14;;;;;;;2.75;0.70;;;16.00;99.90;;;;;;4913994;29;20032;-95
2022/09/16 08:49:44;;;;;;;4.80;0.95;;;16.10;99.90;;;;;;4912763;29;20039;-96
2022/09/16 08:52:39;;;;;;;5.05;0.77;;;16.20;99.90;;;;;;4913972;29;20092;-96
2022/09/16 08:55:50;;;;;;;4.40;1.35;;;16.20;99.90;;;;;;4899586;29;20029;-96
2022/09/16 08:58:29;;;;;;;4.43;0.88;;;16.30;99.80;;;;;;4865512;29;20048;-96
2022/09/16 09:01:23;;;;;;;5.85;0.75;;;16.40;99.70;;;;;;4909522;29;20028;-96
2022/09/16 09:03:49;;;;;;;3.15;0.70;;;16.40;99.80;;;;;;4912803;29;20092;-96
2022/09/16 09:06:48;;;;;;;2.97;0.70;;;16.50;99.30;;;;;;4931345;29;20035;-96
2022/09/16 09:09:50;;;;;;;4.45;0.60;;;16.60;99.20;;;;;;4931838;29;20091;-96
2022/09/16 09:12:54;;;;;;;5.22;0.98;;;16.70;98.90;;;;;;4932579;29;20040;-96
2022/09/16 09:15:29;;;;;;;5.57;0.73;;;16.80;98.80;;;;;;4847095;29;20121;-96
2022/09/16 09:18:00;;;;;;;5.22;0.65;;;16.90;98.20;;;;;;4923446;29;20043;-96
2022/09/16 09:20:29;;;;;;;4.53;1.08;;;16.90;97.90;;;;;;4919046;29;20029;-96
2022/09/16 09:23:19;;;;;;;3.03;0.75;;;17.00;97.90;;;;;;4919659;29;20027;-96
2022/09/16 09:25:58;;;;;;;2.47;0.47;;;17.00;97.80;;;;;;4903563;29;20067;-96
2022/09/16 09:28:45;;;;;;;1.10;0.38;;;17.10;97.70;;;;;;4898072;29;20044;-96
2022/09/16 09:31:26;;;;;;;1.73;0.60;;;17.10;97.50;;;;;;4923135;29;20035;-96
2022/09/16 09:34:13;;;;;;;2.75;0.50;;;17.20;97.00;;;;;;4924217;29;20080;-96
2022/09/16 09:36:59;;;;;;;1.77;0.40;;;17.30;96.40;;;;;;4900149;29;20024;-96
2022/09/16 09:39:51;;;;;;;3.97;0.95;;;17.40;96.50;;;;;;4905089;29;20031;-96
2022/09/16 09:42:23;;;;;;;4.40;0.43;;;17.40;96.40;;;;;;4923935;29;20118;-94
2022/09/16 09:45:02;;;;;;;2.85;0.60;;;17.50;96.00;;;;;;4904614;29;20379;-96
2022/09/16 09:47:41;;;;;;;1.67;0.40;;;17.60;95.80;;;;;;4917375;29;20528;-96
2022/09/16 09:50:16;;;;;;;1.27;0.57;;;17.60;95.40;;;;;;4904976;29;20031;-95
2022/09/16 09:52:53;;;;;;;1.08;0.40;;;17.70;95.30;;;;;;4905018;29;20080;-96
2022/09/16 09:55:24;;;;;;;2.05;0.60;;;17.80;95.00;;;;;;4921656;29;20072;-96
2022/09/16 09:58:15;;;;;;;2.95;0.65;;;17.80;94.90;;;;;;4903474;29;20060;-96
2022/09/16 10:00:42;;;;;;;1.50;0.80;;;17.90;94.90;;;;;;4919280;29;20059;-96
2022/09/16 10:03:16;;;;;;;5.78;0.90;;;18.00;94.70;;;;;;4923870;29;20107;-96
2022/09/16 10:05:42;;;;;;;4.90;1.13;;;18.10;94.80;;;;;;4929022;29;20032;-96
2022/09/16 10:08:47;;;;;;;3.08;0.75;;;18.20;94.50;;;;;;4915604;29;20047;-96
2022/09/16 10:11:30;;;;;;;2.13;0.47;;;18.30;94.20;;;;;;4907405;29;20060;-96
2022/09/16 10:13:58;;;;;;;3.75;0.77;;;18.30;93.70;;;;;;4905014;29;20025;-96
2022/09/16 10:16:44;;;;;;;3.58;0.70;;;18.40;93.50;;;;;;4899040;29;20024;-96
2022/09/16 10:19:23;;;;;;;2.85;0.70;;;18.40;93.30;;;;;;4923288;29;20028;-96
2022/09/16 10:22:05;;;;;;;;;;;;;;;;;;;;;
2022/09/16 10:24:38;;;;;;;0.88;0.35;;;18.50;92.90;;;;;;4921875;29;20079;-96
2022/09/16 10:27:26;;;;;;;3.00;0.60;;;18.60;92.70;;;;;;4924683;29;20032;-96
2022/09/16 10:30:37;;;;;;;1.52;0.65;;;18.60;92.60;;;;;;4906234;29;20048;-96
2022/09/16 10:33:11;;;;;;;1.95;0.55;;;18.70;92.30;;;;;;4927655;29;20028;-96
2022/09/16 10:35:54;;;;;;;2.75;0.70;;;18.80;91.50;;;;;;4910572;29;20052;-96
2022/09/16 10:38:22;;;;;;;1.20;0.52;;;18.80;91.10;;;;;;4929434;29;20107;-96
2022/09/16 10:41:07;;;;;;;2.65;0.60;;;18.90;91.30;;;;;;4892884;29;20061;-96
2022/09/16 10:43:35;;;;;;;2.63;0.60;;;19.00;91.00;;;;;;4909824;29;20020;-96
2022/09/16 10:46:01;;;;;;;2.05;0.32;;;19.10;90.60;;;;;;4912863;29;20020;-96
2022/09/16 10:48:33;;;;;;;1.20;0.60;;;19.10;89.90;;;;;;4910343;29;20033;-96
2022/09/16 10:51:01;;;;;;;4.25;0.73;;;19.10;89.50;;;;;;4907025;29;20122;-96
2022/09/16 10:53:34;;;;;;;3.47;0.77;;;19.20;89.00;;;;;;4905767;29;20032;-96
2022/09/16 10:56:07;;;;;;;1.10;0.50;;;19.30;89.80;;;;;;4925557;29;20028;-96
2022/09/16 10:58:39;;;;;;;3.65;0.65;;;19.40;90.00;;;;;;4929134;29;20040;-96
2022/09/16 11:01:25;;;;;;;3.20;0.98;;;19.50;88.90;;;;;;4926351;29;20037;-96
2022/09/16 11:04:12;;;;;;;2.05;0.60;;;19.60;88.30;;;;;;4905243;29;20024;-96
2022/09/16 11:06:47;;;;;;;4.90;0.80;;;19.60;88.80;;;;;;4919771;29;20052;-95
2022/09/16 11:09:38;;;;;;;3.28;0.80;;;19.70;88.10;;;;;;4925212;29;20040;-96
2022/09/16 11:12:03;;;;;;;;;;;19.80;88.00;;;;;;4909483;29;20027;-96
2022/09/16 11:14:31;;;;;;;5.18;1.30;;;19.80;85.00;;;;;;4931128;29;19907;-96
2022/09/16 11:17:27;;;;;;;2.92;0.70;;;19.80;86.00;;;;;;4909818;29;20056;-96
2022/09/16 11:20:37;;;;;;;3.60;0.60;;;19.90;86.70;;;;;;4926246;29;20064;-96
2022/09/16 11:23:26;;;;;;;3.58;0.80;;;19.90;85.10;;;;;;4910430;29;20393;-96
2022/09/16 11:26:21;;;;;;;5.10;0.70;;;19.90;84.90;;;;;;4929456;29;20024;-96
2022/09/16 11:29:13;;;;;;;1.90;0.65;;;19.90;85.60;;;;;;4941487;29;20033;-96
2022/09/16 11:31:55;;;;;;;1.45;0.47;;;19.90;85.70;;;;;;4924442;29;20017;-94
2022/09/16 11:34:30;;;;;;;3.97;1.35;;;20.00;85.10;;;;;;4920963;29;20085;-96
2022/09/16 11:37:23;;;;;;;2.13;0.60;;;20.00;84.30;;;;;;4937496;29;20039;-96
2022/09/16 11:40:01;;;;;;;2.60;0.50;;;20.10;83.20;;;;;;4935442;29;20037;-96
2022/09/16 11:42:41;;;;;;;3.75;1.00;;;20.20;82.80;;;;;;4935897;29;20013;-96
2022/09/16 11:45:39;;;;;;;3.55;0.73;;;20.20;82.60;;;;;;4923135;29;20048;-96
2022/09/16 11:48:37;;;;;;;2.60;0.60;;;20.30;81.60;;;;;;4918513;29;20044;-96
2022/09/16 11:51:27;;;;;;;1.90;0.65;;;20.40;81.30;;;;;;4912366;29;20036;-96
2022/09/16 11:54:11;;;;;;;1.30;0.40;;;20.40;81.10;;;;;;4908548;29;20035;-96
2022/09/16 11:57:10;;;;;;;4.90;0.68;;;20.50;80.60;;;;;;4922643;29;20033;-96
2022/09/16 11:59:41;;;;;;;4.53;0.70;;;20.50;80.80;;;;;;4914841;29;20039;-96
2022/09/16 12:02:34;;;;;;;2.72;0.80;;;20.50;79.70;;;;;;4925972;29;20028;-96
2022/09/16 12:05:19;;;;;;;3.05;0.73;;;20.50;79.30;;;;;;4926185;29;20107;-96
2022/09/16 12:07:55;;;;;;;3.13;0.80;;;20.50;78.70;;;;;;4904894;29;20036;-95
2022/09/16 12:10:47;;;;;;;3.03;0.70;;;20.50;78.40;;;;;;4906159;29;20461;-96
2022/09/16 12:13:27;;;;;;;3.90;0.75;;;20.50;77.50;;;;;;4898885;29;20029;-95
2022/09/16 12:15:58;;;;;;;3.67;1.27;;;20.60;77.50;;;;;;4927199;29;20071;-96
2022/09/16 12:18:51;;;;;;;;;;;;;;;;;;;;;
2022/09/16 12:21:27;;;;;;;3.60;0.90;;;20.70;75.80;;;;;;4938858;29;20048;-96
2022/09/16 12:24:34;;;;;;;6.07;0.90;;;20.70;75.10;;;;;;4913354;29;20032;-96
2022/09/16 12:27:51;;;;;;;5.03;1.30;;;20.80;75.10;;;;;;4909166;29;20045;-96
2022/09/16 12:30:27;;;;;;;1.58;0.70;;;20.80;73.40;;;;;;4905518;29;20046;-96
2022/09/16 12:33:17;;;;;;;5.20;0.98;;;20.80;73.80;;;;;;4913066;29;20112;-96
2022/09/16 12:36:04;;;;;;;4.30;0.98;;;20.80;73.90;;;;;;4929142;29;20025;-96
2022/09/16 12:38:49;;;;;;;;;;;;;;;;;;;;;
2022/09/16 12:41:42;;;;;;;4.75;1.08;;;20.90;74.30;;;;;;4935292;29;20063;-96
2022/09/16 12:44:07;;;;;;;12.32;1.50;;;20.90;74.60;;;;;;4934000;29;20052;-96
2022/09/16 12:49:48;;;;;;;8.52;1.77;;;21.00;76.10;;;;;;4919190;29;20040;-96
2022/09/16 12:52:41;;;;;;;3.22;0.90;;;21.00;75.50;;;;;;4913865;29;20036;-96
2022/09/16 12:55:36;;;;;;;4.70;0.68;;;21.00;76.30;;;;;;4925501;29;20048;-96
2022/09/16 12:58:32;;;;;;;3.90;0.77;;;21.00;76.80;;;;;;4914379;29;20045;-96
2022/09/16 13:01:19;;;;;;;4.47;0.98;;;21.00;77.20;;;;;;4927933;29;20052;-96
2022/09/16 13:04:13;;;;;;;3.28;0.80;;;21.10;77.60;;;;;;4912228;29;20063;-96
2022/09/16 13:06:47;;;;;;;4.47;0.90;;;21.10;76.10;;;;;;4914930;29;20012;-95
2022/09/16 13:09:37;;;;;;;;;;;;;;;;;;;;;
2022/09/16 13:12:27;;;;;;;7.45;1.08;;;21.10;75.80;;;;;;4934476;29;20500;-96
2022/09/16 13:15:03;;;;;;;3.47;0.80;;;21.10;76.40;;;;;;4911983;29;20028;-96
2022/09/16 13:17:39;;;;;;;3.08;0.70;;;21.10;77.20;;;;;;4925525;29;20059;-96
2022/09/16 13:20:31;;;;;;;5.75;2.28;;;21.20;75.80;;;;;;4931772;29;20052;-96
2022/09/16 13:23:32;;;;;;;;;;;;;;;;;;;;;
2022/09/16 13:26:13;;;;;;;4.13;1.00;;;21.30;74.60;;;;;;4931442;29;20052;-96
2022/09/16 13:28:51;;;;;;;4.95;1.30;;;21.30;75.40;;;;;;4895742;29;20037;-96
2022/09/16 13:31:27;;;;;;;6.82;1.85;;;21.30;75.10;;;;;;4913965;29;20048;-96
2022/09/16 13:34:16;;;;;;;7.28;1.13;;;21.30;75.30;;;;;;4908383;29;20021;-96
2022/09/16 13:36:54;;;;;;;4.03;0.90;;;21.40;75.00;;;;;;4915186;29;20028;-94
2022/09/16 13:39:32;;;;;;;7.57;1.90;;;21.40;73.60;;;;;;4914580;29;20054;-88
2022/09/16 13:42:15;;;;;;;8.77;2.67;;;21.40;73.30;;;;;;4909909;29;20024;-88
2022/09/16 13:44:42;;;;;;;11.25;4.55;;;21.30;72.00;;;;;;4931454;29;20029;-86
2022/09/16 13:47:13;;;;;;;4.95;1.92;;;21.30;73.30;;;;;;4924113;29;20481;-89
2022/09/16 13:49:39;;;;;;;8.20;4.13;;;21.40;74.10;;;;;;4920092;29;20112;-89
2022/09/16 13:52:17;;;;;;;4.80;1.40;;;21.40;73.80;;;;;;4900064;29;20060;-88
2022/09/16 13:54:52;;;;;;;6.00;1.63;;;21.50;72.70;;;;;;4898581;29;20034;-87
2022/09/16 13:57:42;;;;;;;6.70;1.10;;;21.40;72.70;;;;;;4901256;29;20088;-88
2022/09/16 14:00:18;;;;;;;8.07;2.65;;;21.40;69.70;;;;;;4899457;29;20124;-89
2022/09/16 14:02:52;;;;;;;5.80;2.33;;;21.40;68.70;;;;;;4898515;29;20540;-86
2022/09/16 14:05:51;;;;;;;2.92;0.90;;;21.40;69.10;;;;;;4901177;29;20021;-88
2022/09/16 14:08:25;;;;;;;4.35;0.80;;;21.20;68.70;;;;;;4869797;29;20059;-89
2022/09/16 14:11:14;;;;;;;3.55;0.90;;;21.10;69.50;;;;;;4921845;29;20103;-89
2022/09/16 14:13:44;;;;;;;5.93;1.48;;;21.00;69.60;;;;;;4891914;29;20123;-87
2022/09/16 14:16:24;;;;;;;4.60;0.82;;;20.90;70.10;;;;;;4920933;29;20029;-87
2022/09/16 14:18:55;;;;;;;4.93;1.17;;;20.80;70.90;;;;;;4902484;29;20111;-88
2022/09/16 14:21:23;;;;;;;3.10;0.80;;;20.70;72.20;;;;;;4921029;29;20055;-89
2022/09/16 14:23:49;;;;;;;3.90;1.10;;;20.70;73.40;;;;;;4901393;29;20024;-88
2022/09/16 14:26:20;;;;;;;6.25;1.00;;;20.80;73.20;;;;;;4904012;29;20033;-88
2022/09/16 14:28:46;;;;;;;5.07;1.00;;;20.80;72.90;;;;;;4901778;29;20072;-88
2022/09/16 14:31:17;;;;;;;94.13;33.25;;;20.80;72.70;;;;;;4903982;29;20389;-88
2022/09/16 14:33:55;;;;;;;76.13;25.20;;;20.80;73.30;;;;;;4921935;29;20020;-89
2022/09/16 14:36:33;;;;;;;32.30;12.35;;;20.90;72.70;;;;;;4905107;29;20028;-88